Time;durP1;ratioP1;P1;durP2;ratioP2;P2;SDS_P1;SDS_P2;PMS_P1;PMS_P2;Temp;Humidity;BMP_temperature;BMP_pressure;BME280_temperature;BME280_humidity;BME280_pressure;Samples;Min_cycle;Max_cycle;Signal;HPM_P1;HPM_P2
2022/02/24 00:01:59;;;;;;;2.15;0.08;;;7.60;99.90;;;;;;5076044;28;20055;-76
2022/02/24 00:04:24;;;;;;;3.58;0.10;;;7.60;99.90;;;;;;5074436;28;20466;-76
2022/02/24 00:06:50;;;;;;;4.43;0.43;;;7.60;99.90;;;;;;5075725;28;20016;-76
2022/02/24 00:09:16;;;;;;;5.15;0.28;;;7.50;99.90;;;;;;5074521;28;20024;-76
2022/02/24 00:11:41;;;;;;;4.07;0.30;;;7.60;99.90;;;;;;5076020;28;20474;-75
2022/02/24 00:14:07;;;;;;;8.52;0.52;;;7.60;99.90;;;;;;5075849;28;20032;-75
2022/02/24 00:16:33;;;;;;;8.25;0.25;;;7.60;99.90;;;;;;5075368;28;20437;-76
2022/02/24 00:18:59;;;;;;;6.25;0.98;;;7.60;99.90;;;;;;5075950;28;20035;-75
2022/02/24 00:21:24;;;;;;;11.80;1.38;;;7.50;99.90;;;;;;5074267;28;20062;-75
2022/02/24 00:23:50;;;;;;;6.28;0.73;;;7.60;99.90;;;;;;5075879;28;20020;-75
2022/02/24 00:26:16;;;;;;;6.85;0.65;;;7.60;99.90;;;;;;5075343;28;20021;-75
2022/02/24 00:28:41;;;;;;;11.43;0.77;;;7.60;99.90;;;;;;5074015;28;20020;-76
2022/02/24 00:31:10;;;;;;;8.20;1.48;;;7.60;99.90;;;;;;5075539;28;20027;-76
2022/02/24 00:33:36;;;;;;;5.63;0.17;;;7.60;99.90;;;;;;5074023;28;20040;-76
2022/02/24 00:36:02;;;;;;;12.73;0.52;;;7.50;99.90;;;;;;5075177;28;20105;-76
2022/02/24 00:38:27;;;;;;;8.38;0.32;;;7.50;99.90;;;;;;5075469;28;20052;-76
2022/02/24 00:40:53;;;;;;;5.05;0.28;;;7.60;99.90;;;;;;5075442;28;20025;-76
2022/02/24 00:43:18;;;;;;;7.90;0.20;;;7.60;99.90;;;;;;5075416;28;20100;-76
2022/02/24 00:45:44;;;;;;;11.45;2.33;;;7.60;99.90;;;;;;5075280;28;20009;-76
2022/02/24 00:48:10;;;;;;;8.25;0.60;;;7.60;99.90;;;;;;5073765;28;20123;-76
2022/02/24 00:50:37;;;;;;;8.95;0.40;;;7.60;99.90;;;;;;5074943;28;20029;-75
2022/02/24 00:53:03;;;;;;;8.80;1.80;;;7.70;99.90;;;;;;5073594;28;20021;-76
2022/02/24 00:55:28;;;;;;;2.78;0.20;;;7.70;99.90;;;;;;5075288;28;20078;-76
2022/02/24 00:57:54;;;;;;;6.63;0.30;;;7.70;99.90;;;;;;5073487;28;20055;-76
2022/02/24 01:00:20;;;;;;;4.03;0.43;;;7.70;99.90;;;;;;5073476;28;20044;-76
2022/02/24 01:02:46;;;;;;;3.45;0.10;;;7.70;99.90;;;;;;5074697;28;20020;-76
2022/02/24 01:05:12;;;;;;;10.90;0.50;;;7.70;99.90;;;;;;5074609;28;20035;-76
2022/02/24 01:07:37;;;;;;;6.47;0.63;;;7.70;99.90;;;;;;5074616;28;20066;-75
2022/02/24 01:10:04;;;;;;;9.27;0.55;;;7.70;99.90;;;;;;5074557;28;20028;-76
2022/02/24 01:12:30;;;;;;;2.20;0.00;;;7.70;99.90;;;;;;5074408;28;20028;-76
2022/02/24 01:14:56;;;;;;;4.78;0.60;;;7.70;99.90;;;;;;5074551;28;20028;-73
2022/02/24 01:17:22;;;;;;;2.97;0.80;;;7.80;99.90;;;;;;5074825;28;20107;-73
2022/02/24 01:19:48;;;;;;;5.68;1.10;;;7.70;99.90;;;;;;5074318;28;20021;-73
2022/02/24 01:22:16;;;;;;;5.65;0.20;;;7.70;99.90;;;;;;5074322;28;20020;-73
2022/02/24 01:24:42;;;;;;;10.45;0.30;;;7.70;99.90;;;;;;5074719;28;20519;-74
2022/02/24 01:27:08;;;;;;;1.38;0.25;;;7.70;99.90;;;;;;5075132;28;20025;-73
2022/02/24 01:29:33;;;;;;;8.75;0.85;;;7.70;99.90;;;;;;5074342;28;20023;-72
2022/02/24 01:31:59;;;;;;;5.85;0.50;;;7.80;99.90;;;;;;5074430;28;20096;-73
2022/02/24 01:34:27;;;;;;;11.82;1.10;;;7.80;99.90;;;;;;5079442;28;20024;-73
2022/02/24 01:36:53;;;;;;;9.67;0.97;;;7.80;99.90;;;;;;5094814;28;20381;-73
2022/02/24 01:39:18;;;;;;;12.20;0.80;;;7.70;99.90;;;;;;5094286;28;20024;-73
2022/02/24 01:41:44;;;;;;;6.85;0.00;;;7.70;99.90;;;;;;5093129;28;20024;-72
2022/02/24 01:44:13;;;;;;;4.93;0.28;;;7.70;99.90;;;;;;5090007;28;20025;-72
2022/02/24 01:46:39;;;;;;;;;;;7.70;99.90;;;;;;5087746;28;20027;-72
2022/02/24 01:49:05;;;;;;;9.02;0.20;;;7.70;99.90;;;;;;5094139;28;19904;-73
2022/02/24 01:51:33;;;;;;;9.32;0.43;;;7.70;99.90;;;;;;5094090;28;20024;-73
2022/02/24 01:53:59;;;;;;;10.73;1.08;;;7.70;99.90;;;;;;5091129;28;20024;-74
2022/02/24 01:56:25;;;;;;;8.63;0.32;;;7.70;99.90;;;;;;5072423;28;20537;-73
2022/02/24 01:58:50;;;;;;;6.03;0.55;;;7.70;99.90;;;;;;5073908;28;20166;-72
2022/02/24 02:01:16;;;;;;;11.70;0.03;;;7.80;99.90;;;;;;5072622;28;20478;-72
2022/02/24 02:03:42;;;;;;;8.05;0.45;;;7.70;99.90;;;;;;5073542;28;20021;-72
2022/02/24 02:06:08;;;;;;;5.40;0.73;;;7.70;99.90;;;;;;5072337;28;20031;-72
2022/02/24 02:08:50;;;;;;;9.45;0.20;;;7.80;99.90;;;;;;5073785;28;20070;-74
2022/02/24 02:11:16;;;;;;;7.53;0.57;;;7.80;99.90;;;;;;5073700;28;20070;-72
2022/02/24 02:13:42;;;;;;;4.05;0.25;;;7.70;99.90;;;;;;5072189;28;20367;-72
2022/02/24 02:16:09;;;;;;;2.70;0.45;;;7.70;99.90;;;;;;5072215;28;20429;-72
2022/02/24 02:18:35;;;;;;;2.03;0.57;;;7.70;99.90;;;;;;5073197;28;20020;-72
2022/02/24 02:21:01;;;;;;;6.53;1.13;;;7.70;99.90;;;;;;5073362;28;20027;-73
2022/02/24 02:23:26;;;;;;;5.55;0.30;;;7.70;99.90;;;;;;5072164;28;20020;-73
2022/02/24 02:25:52;;;;;;;1.55;0.00;;;7.70;99.90;;;;;;5073593;28;20070;-72
2022/02/24 02:28:18;;;;;;;6.47;0.22;;;7.70;99.90;;;;;;5073533;28;20033;-73
2022/02/24 02:30:44;;;;;;;7.97;0.63;;;7.80;99.90;;;;;;5073527;28;20497;-72
2022/02/24 02:33:10;;;;;;;3.80;0.10;;;7.70;99.90;;;;;;5073327;28;20465;-72
2022/02/24 02:35:37;;;;;;;5.68;0.50;;;8.10;99.90;;;;;;5073236;28;20096;-73
2022/02/24 02:38:04;;;;;;;6.55;0.82;;;7.70;99.90;;;;;;5071881;28;20029;-72
2022/02/24 02:40:30;;;;;;;7.38;0.40;;;7.70;99.90;;;;;;5073151;28;20028;-73
2022/02/24 02:42:55;;;;;;;9.70;0.95;;;7.70;99.90;;;;;;5073157;28;20459;-72
2022/02/24 02:45:21;;;;;;;5.75;0.35;;;7.70;99.90;;;;;;5087956;28;20392;-73
2022/02/24 02:47:47;;;;;;;1.70;0.10;;;7.70;99.90;;;;;;5093299;28;20509;-72
2022/02/24 02:50:13;;;;;;;8.57;0.50;;;7.70;99.90;;;;;;5093210;28;20020;-72
2022/02/24 02:52:39;;;;;;;12.40;0.40;;;7.70;99.90;;;;;;5093632;28;20028;-73
2022/02/24 02:55:10;;;;;;;2.05;0.25;;;7.70;99.90;;;;;;5093206;28;20136;-73
2022/02/24 02:57:37;;;;;;;10.38;0.50;;;7.70;99.90;;;;;;5093110;28;20032;-73
2022/02/24 03:00:09;;;;;;;7.95;0.40;;;7.80;99.90;;;;;;5084935;28;20033;-73
2022/02/24 03:02:34;;;;;;;4.63;0.43;;;7.80;99.90;;;;;;5073485;28;20031;-73
2022/02/24 03:05:00;;;;;;;3.75;0.28;;;7.70;99.90;;;;;;5072893;28;20020;-73
2022/02/24 03:07:25;;;;;;;6.53;0.40;;;7.70;99.90;;;;;;5072915;28;20493;-73
2022/02/24 03:09:52;;;;;;;5.55;0.57;;;7.80;99.90;;;;;;5072807;28;20060;-73
2022/02/24 03:12:18;;;;;;;7.28;0.57;;;7.80;99.90;;;;;;5072853;28;20074;-73
2022/02/24 03:14:44;;;;;;;8.00;0.90;;;7.70;99.90;;;;;;5072603;28;20171;-72
2022/02/24 03:17:10;;;;;;;11.25;1.13;;;7.70;99.90;;;;;;5071514;28;20025;-73
2022/02/24 03:19:38;;;;;;;6.55;0.38;;;7.80;99.90;;;;;;5071548;28;20100;-73
2022/02/24 03:22:09;;;;;;;4.35;0.25;;;7.80;99.90;;;;;;5072777;28;20024;-72
2022/02/24 03:24:34;;;;;;;8.40;0.15;;;7.80;99.90;;;;;;5071441;28;20021;-72
2022/02/24 03:27:00;;;;;;;8.68;0.43;;;7.80;99.90;;;;;;5073338;28;20359;-72
2022/02/24 03:29:25;;;;;;;5.47;0.47;;;7.80;99.90;;;;;;5073217;28;20024;-72
2022/02/24 03:31:51;;;;;;;7.13;1.15;;;7.80;99.90;;;;;;5096909;28;20028;-72
2022/02/24 03:34:16;;;;;;;5.00;0.30;;;7.70;99.90;;;;;;5096829;28;20062;-73
2022/02/24 03:36:42;;;;;;;4.55;0.40;;;7.70;99.90;;;;;;5096801;28;20377;-73
2022/02/24 03:39:08;;;;;;;7.28;1.20;;;7.60;99.90;;;;;;5096584;28;20028;-73
2022/02/24 03:41:34;;;;;;;3.30;0.25;;;7.60;99.90;;;;;;5083179;28;20016;-73
2022/02/24 03:43:59;;;;;;;3.95;0.50;;;7.60;99.90;;;;;;5076127;28;20458;-72
2022/02/24 03:46:25;;;;;;;7.38;1.00;;;7.60;99.90;;;;;;5076308;28;20040;-74
2022/02/24 03:48:51;;;;;;;5.72;0.15;;;7.60;99.90;;;;;;5076352;28;20029;-74
2022/02/24 03:51:17;;;;;;;6.88;0.63;;;7.60;99.90;;;;;;5076098;28;20107;-75
2022/02/24 03:53:43;;;;;;;4.50;0.35;;;7.60;99.90;;;;;;5075967;28;20027;-75
2022/02/24 03:56:09;;;;;;;6.25;0.43;;;7.60;99.90;;;;;;5076086;28;20489;-75
2022/02/24 03:58:35;;;;;;;7.10;1.15;;;7.70;99.90;;;;;;5076193;28;20051;-75
2022/02/24 04:01:01;;;;;;;7.30;0.10;;;7.60;99.90;;;;;;5074610;28;20016;-75
2022/02/24 04:03:26;;;;;;;19.95;1.27;;;7.70;99.90;;;;;;5075833;28;20020;-75
2022/02/24 04:05:52;;;;;;;9.73;1.33;;;7.70;99.90;;;;;;5075799;28;20024;-75
2022/02/24 04:08:18;;;;;;;10.55;0.70;;;7.60;99.90;;;;;;5075766;28;20494;-75
2022/02/24 04:10:44;;;;;;;5.72;0.73;;;7.70;99.90;;;;;;5075742;28;20125;-75
2022/02/24 04:13:10;;;;;;;7.20;0.43;;;7.60;99.90;;;;;;5076175;28;20040;-75
2022/02/24 04:15:38;;;;;;;4.45;0.20;;;7.60;99.90;;;;;;5075568;28;20470;-75
2022/02/24 04:18:05;;;;;;;5.50;0.82;;;7.60;99.90;;;;;;5074320;28;20052;-75
2022/02/24 04:20:31;;;;;;;4.50;0.70;;;7.60;99.90;;;;;;5075777;28;20066;-75
2022/02/24 04:22:57;;;;;;;9.20;0.50;;;7.70;99.90;;;;;;5075190;28;20381;-75
2022/02/24 04:25:23;;;;;;;5.43;0.68;;;7.60;99.90;;;;;;5075404;28;20024;-75
2022/02/24 04:27:51;;;;;;;4.13;0.10;;;7.60;99.90;;;;;;5074141;28;20033;-75
2022/02/24 04:30:18;;;;;;;5.47;0.75;;;7.60;99.90;;;;;;5075462;28;20167;-75
2022/02/24 04:32:45;;;;;;;4.13;0.10;;;7.60;99.90;;;;;;5075557;28;20036;-75
2022/02/24 04:35:11;;;;;;;11.55;1.05;;;7.60;99.90;;;;;;5073950;28;20021;-75
2022/02/24 04:37:36;;;;;;;3.25;0.40;;;7.60;99.90;;;;;;5075419;28;20017;-75
2022/02/24 04:40:04;;;;;;;5.40;0.15;;;7.60;99.90;;;;;;5073897;28;20478;-75
2022/02/24 04:42:30;;;;;;;7.50;1.33;;;7.60;99.90;;;;;;5074629;28;20013;-75
2022/02/24 04:44:57;;;;;;;6.93;0.65;;;7.60;99.90;;;;;;5073885;28;20024;-75
2022/02/24 04:47:23;;;;;;;5.35;0.35;;;7.70;99.90;;;;;;5075169;28;20040;-75
2022/02/24 04:49:49;;;;;;;5.05;0.10;;;7.70;99.90;;;;;;5073727;28;20035;-75
2022/02/24 04:52:15;;;;;;;4.15;0.45;;;8.50;99.90;;;;;;5073781;28;20024;-75
2022/02/24 04:54:40;;;;;;;5.03;0.45;;;7.70;99.90;;;;;;5074883;28;20052;-75
2022/02/24 04:57:06;;;;;;;5.07;0.25;;;7.70;99.90;;;;;;5075133;28;20020;-75
2022/02/24 04:59:31;;;;;;;4.72;0.38;;;7.70;99.90;;;;;;5073584;28;20103;-75
2022/02/24 05:01:57;;;;;;;11.80;0.85;;;7.70;99.90;;;;;;5074998;28;20095;-75
2022/02/24 05:04:22;;;;;;;9.02;1.25;;;7.70;99.90;;;;;;5073793;28;20051;-75
2022/02/24 05:06:48;;;;;;;8.70;0.65;;;7.70;99.90;;;;;;5075334;28;20480;-75
2022/02/24 05:09:14;;;;;;;2.45;0.20;;;7.70;99.90;;;;;;5074730;28;20412;-75
2022/02/24 05:11:39;;;;;;;7.53;0.50;;;7.80;99.90;;;;;;5074967;28;20398;-75
2022/02/24 05:14:05;;;;;;;5.13;0.20;;;7.70;99.90;;;;;;5074554;28;20111;-75
2022/02/24 05:16:30;;;;;;;3.45;0.68;;;7.70;99.90;;;;;;5074283;28;20036;-75
2022/02/24 05:18:56;;;;;;;4.38;0.65;;;7.70;99.90;;;;;;5075221;28;20032;-75
2022/02/24 05:21:21;;;;;;;5.45;0.20;;;7.70;99.90;;;;;;5074902;28;20066;-75
2022/02/24 05:23:47;;;;;;;5.68;0.25;;;7.70;99.90;;;;;;5072919;28;20021;-75
2022/02/24 05:26:12;;;;;;;9.93;1.23;;;7.70;99.90;;;;;;5074199;28;20398;-74
2022/02/24 05:28:38;;;;;;;3.92;0.65;;;7.70;99.90;;;;;;5074175;28;20099;-74
2022/02/24 05:31:04;;;;;;;6.82;0.85;;;7.70;99.90;;;;;;5074174;28;20513;-75
2022/02/24 05:33:30;;;;;;;7.43;0.50;;;7.70;99.90;;;;;;5074242;28;20020;-75
2022/02/24 05:35:56;;;;;;;6.20;0.30;;;7.80;99.90;;;;;;5074040;28;20027;-76
2022/02/24 05:38:22;;;;;;;4.90;0.40;;;7.70;99.90;;;;;;5073931;28;20035;-76
2022/02/24 05:40:48;;;;;;;3.17;0.73;;;7.70;99.90;;;;;;5073988;28;20100;-75
2022/02/24 05:43:16;;;;;;;3.90;0.50;;;7.80;99.90;;;;;;5073274;28;20020;-75
2022/02/24 05:45:45;;;;;;;7.97;1.00;;;7.70;99.90;;;;;;5074118;28;20021;-75
2022/02/24 05:48:12;;;;;;;8.20;0.30;;;7.80;99.90;;;;;;5072494;28;20028;-75
2022/02/24 05:50:38;;;;;;;11.50;0.77;;;7.70;99.90;;;;;;5074126;28;20019;-75
2022/02/24 05:53:03;;;;;;;3.30;0.88;;;7.70;99.90;;;;;;5073907;28;20021;-74
2022/02/24 05:55:33;;;;;;;4.82;0.30;;;7.60;99.90;;;;;;5073057;28;20538;-75
2022/02/24 05:57:59;;;;;;;6.13;0.50;;;7.60;99.90;;;;;;5073887;28;20529;-75
2022/02/24 06:00:25;;;;;;;5.70;0.30;;;7.60;99.90;;;;;;5073909;28;20051;-75
2022/02/24 06:02:51;;;;;;;5.47;0.20;;;7.60;99.90;;;;;;5072322;28;20025;-75
2022/02/24 06:05:16;;;;;;;2.10;0.25;;;7.70;99.90;;;;;;5072291;28;20013;-75
2022/02/24 06:07:43;;;;;;;7.53;1.00;;;7.60;99.90;;;;;;5072298;28;20028;-75
2022/02/24 06:10:10;;;;;;;5.60;0.57;;;7.60;99.90;;;;;;5073432;28;20551;-74
2022/02/24 06:12:36;;;;;;;9.27;0.65;;;7.60;99.90;;;;;;5073717;28;20028;-75
2022/02/24 06:15:03;;;;;;;7.30;0.38;;;7.60;99.90;;;;;;5073169;28;20032;-74
2022/02/24 06:17:29;;;;;;;1.80;0.10;;;7.60;99.90;;;;;;5072118;28;20111;-75
2022/02/24 06:19:54;;;;;;;7.50;1.17;;;7.60;99.90;;;;;;5073418;28;20097;-75
2022/02/24 06:22:20;;;;;;;3.35;0.10;;;7.60;99.90;;;;;;5073626;28;20016;-75
2022/02/24 06:24:46;;;;;;;6.30;1.38;;;7.50;99.90;;;;;;5073283;28;20020;-75
2022/02/24 06:27:12;;;;;;;11.07;1.48;;;7.50;99.90;;;;;;5073574;28;20363;-75
2022/02/24 06:29:37;;;;;;;14.25;1.13;;;7.50;99.90;;;;;;5073313;28;20028;-75
2022/02/24 06:32:04;;;;;;;5.78;0.30;;;7.60;99.90;;;;;;5073260;28;20029;-75
2022/02/24 06:34:30;;;;;;;3.03;0.45;;;7.50;99.90;;;;;;5073388;28;20028;-75
2022/02/24 06:36:56;;;;;;;10.90;0.80;;;7.50;99.90;;;;;;5071948;28;20013;-75
2022/02/24 06:39:22;;;;;;;7.60;0.80;;;7.50;99.90;;;;;;5075090;28;20484;-75
2022/02/24 06:41:48;;;;;;;4.78;0.80;;;7.60;99.90;;;;;;5093445;28;20020;-75
2022/02/24 06:44:14;;;;;;;8.38;0.90;;;7.60;99.90;;;;;;5093848;28;20513;-74
2022/02/24 06:46:40;;;;;;;10.13;0.55;;;7.60;99.90;;;;;;5093606;28;20054;-74
2022/02/24 06:49:05;;;;;;;8.35;1.10;;;7.60;99.90;;;;;;5092036;28;20024;-74
2022/02/24 06:51:31;;;;;;;5.70;0.10;;;7.60;99.90;;;;;;5091786;28;20028;-77
2022/02/24 06:53:56;;;;;;;3.88;0.80;;;7.50;99.90;;;;;;5092009;28;20078;-75
2022/02/24 06:56:23;;;;;;;3.55;0.50;;;7.60;99.90;;;;;;5093581;28;20024;-75
2022/02/24 06:58:49;;;;;;;3.38;0.60;;;7.50;99.90;;;;;;5093049;28;20039;-75
2022/02/24 07:01:15;;;;;;;6.20;0.10;;;7.50;99.90;;;;;;5076801;28;20028;-74
2022/02/24 07:03:42;;;;;;;11.43;0.65;;;7.60;99.90;;;;;;5071697;28;20028;-74
2022/02/24 07:06:08;;;;;;;7.53;0.52;;;7.50;99.90;;;;;;5075525;28;20020;-75
2022/02/24 07:08:33;;;;;;;4.20;0.35;;;7.50;99.90;;;;;;5089695;28;20035;-75
2022/02/24 07:10:59;;;;;;;5.85;0.17;;;7.50;99.90;;;;;;5084755;28;20095;-75
2022/02/24 07:13:25;;;;;;;6.18;0.70;;;7.50;99.90;;;;;;5086987;28;20039;-74
2022/02/24 07:15:50;;;;;;;9.48;0.45;;;7.60;99.90;;;;;;5076536;28;20029;-75
2022/02/24 07:18:16;;;;;;;5.18;0.30;;;7.60;99.90;;;;;;5075362;28;20021;-74
2022/02/24 07:20:42;;;;;;;8.52;0.93;;;7.60;99.90;;;;;;5075376;28;20028;-75
2022/02/24 07:23:08;;;;;;;11.40;0.50;;;7.60;99.90;;;;;;5081394;28;20028;-75
2022/02/24 07:25:33;;;;;;;15.00;1.95;;;7.60;99.90;;;;;;5096864;28;20017;-75
2022/02/24 07:27:59;;;;;;;7.35;0.57;;;7.60;99.90;;;;;;5095971;28;20035;-76
2022/02/24 07:30:24;;;;;;;6.28;0.52;;;7.70;99.90;;;;;;5078378;28;20484;-76
2022/02/24 07:32:50;;;;;;;6.40;0.38;;;7.70;99.90;;;;;;5077226;28;20037;-76
2022/02/24 07:35:18;;;;;;;6.00;0.82;;;7.70;99.90;;;;;;5076037;28;20060;-76
2022/02/24 07:37:44;;;;;;;1.73;0.10;;;7.70;99.90;;;;;;5076577;28;20028;-76
2022/02/24 07:40:10;;;;;;;7.38;0.68;;;7.70;99.90;;;;;;5075026;28;20055;-76
2022/02/24 07:42:36;;;;;;;7.43;0.47;;;7.70;99.90;;;;;;5076862;28;20096;-76
2022/02/24 07:45:07;;;;;;;4.53;0.30;;;7.70;99.90;;;;;;5076665;28;20063;-76
2022/02/24 07:47:33;;;;;;;6.18;0.28;;;7.70;99.90;;;;;;5076566;28;20070;-76
2022/02/24 07:49:59;;;;;;;9.27;0.45;;;7.80;99.90;;;;;;5076082;28;20028;-76
2022/02/24 07:52:25;;;;;;;5.13;0.28;;;7.80;99.90;;;;;;5075237;28;20477;-76
2022/02/24 07:54:51;;;;;;;7.82;0.32;;;7.80;99.90;;;;;;5076532;28;20039;-76
2022/02/24 07:57:16;;;;;;;5.82;1.40;;;7.80;99.90;;;;;;5076893;28;20479;-76
2022/02/24 07:59:42;;;;;;;3.55;0.20;;;7.80;99.90;;;;;;5076706;28;20150;-75
2022/02/24 08:02:07;;;;;;;3.80;0.30;;;7.80;99.90;;;;;;5076597;28;20027;-75
2022/02/24 08:04:33;;;;;;;13.57;1.02;;;7.90;99.90;;;;;;5076211;28;20037;-75
2022/02/24 08:06:58;;;;;;;10.38;1.65;;;7.90;99.90;;;;;;5076431;28;20043;-75
2022/02/24 08:09:24;;;;;;;5.85;0.20;;;7.90;99.90;;;;;;5076941;28;20037;-76
2022/02/24 08:14:35;;;;;;;5.18;0.00;;;8.00;99.90;;;;;;5076461;28;20039;-75
2022/02/24 08:17:01;;;;;;;4.13;0.60;;;8.00;99.90;;;;;;5075084;28;20021;-75
2022/02/24 08:19:27;;;;;;;6.32;0.63;;;8.00;99.90;;;;;;5075719;28;20020;-74
2022/02/24 08:21:52;;;;;;;1.63;0.10;;;8.10;99.90;;;;;;5076081;28;20013;-75
2022/02/24 08:24:18;;;;;;;5.70;0.30;;;8.10;99.90;;;;;;5075879;28;20067;-74
2022/02/24 08:26:43;;;;;;;5.63;0.20;;;8.10;99.90;;;;;;5075735;28;20075;-74
2022/02/24 08:29:09;;;;;;;3.38;0.20;;;8.10;99.90;;;;;;5075666;28;20052;-76
2022/02/24 08:31:34;;;;;;;3.25;0.10;;;8.00;99.90;;;;;;5075594;28;20051;-75
2022/02/24 08:34:00;;;;;;;3.80;0.85;;;8.10;99.90;;;;;;5075522;28;20477;-74
2022/02/24 08:36:25;;;;;;;5.50;0.73;;;8.10;99.90;;;;;;5075304;28;20020;-75
2022/02/24 08:38:51;;;;;;;2.08;0.10;;;8.10;99.90;;;;;;5075857;28;20024;-74
2022/02/24 08:41:17;;;;;;;7.88;0.32;;;8.10;99.90;;;;;;5075881;28;20017;-74
2022/02/24 08:43:42;;;;;;;4.00;0.10;;;8.00;99.90;;;;;;5075363;28;20055;-75
2022/02/24 08:46:08;;;;;;;6.38;0.30;;;8.10;99.90;;;;;;5073994;28;20017;-74
2022/02/24 08:48:33;;;;;;;3.35;0.20;;;8.10;99.90;;;;;;5073940;28;20025;-74
2022/02/24 08:50:59;;;;;;;2.08;0.25;;;8.10;99.90;;;;;;5073990;28;20111;-76
2022/02/24 08:53:25;;;;;;;10.50;0.47;;;8.20;99.90;;;;;;5074947;28;20020;-76
2022/02/24 08:55:50;;;;;;;5.15;0.43;;;8.30;99.90;;;;;;5075124;28;20028;-74
2022/02/24 08:58:16;;;;;;;3.30;0.10;;;8.30;99.90;;;;;;5075130;28;20424;-74
2022/02/24 09:00:47;;;;;;;9.95;0.40;;;8.30;99.90;;;;;;5075082;28;20401;-74
2022/02/24 09:03:16;;;;;;;3.00;0.03;;;8.30;99.90;;;;;;5073690;28;20020;-75
2022/02/24 09:05:42;;;;;;;3.30;0.20;;;8.30;99.90;;;;;;5074766;28;20021;-75
2022/02/24 09:08:08;;;;;;;6.82;0.08;;;8.30;99.90;;;;;;5073488;28;20111;-74
2022/02/24 09:10:34;;;;;;;7.57;0.10;;;8.40;99.90;;;;;;5075367;28;20112;-74
2022/02/24 09:13:00;;;;;;;6.30;0.47;;;8.40;99.90;;;;;;5074637;28;20031;-74
2022/02/24 09:15:27;;;;;;;4.43;0.75;;;8.30;99.90;;;;;;5074258;28;20036;-75
2022/02/24 09:17:53;;;;;;;5.85;0.90;;;8.40;99.90;;;;;;5074446;28;20020;-75
2022/02/24 09:20:18;;;;;;;5.90;0.40;;;8.40;99.90;;;;;;5074406;28;20032;-75
2022/02/24 09:22:44;;;;;;;8.27;0.28;;;8.50;99.90;;;;;;5074429;28;20027;-75
2022/02/24 09:25:09;;;;;;;4.32;0.17;;;8.60;99.90;;;;;;5074167;28;20351;-75
2022/02/24 09:27:36;;;;;;;4.20;0.45;;;8.70;99.90;;;;;;5074460;28;20054;-75
2022/02/24 09:30:05;;;;;;;6.75;0.68;;;8.70;99.90;;;;;;5074756;28;20363;-76
2022/02/24 09:32:32;;;;;;;18.05;1.20;;;8.80;99.90;;;;;;5072938;28;20123;-75
2022/02/24 09:34:59;;;;;;;6.03;0.68;;;8.80;99.90;;;;;;5074040;28;20032;-75
2022/02/24 09:37:25;;;;;;;2.45;0.00;;;8.80;99.90;;;;;;5074047;28;20111;-75
2022/02/24 09:39:50;;;;;;;5.75;0.55;;;8.80;99.90;;;;;;5072830;28;20028;-76
2022/02/24 09:42:16;;;;;;;5.53;0.20;;;8.90;99.90;;;;;;5072733;28;20024;-76
2022/02/24 09:44:42;;;;;;;8.07;0.90;;;8.90;99.90;;;;;;5074100;28;20016;-77
2022/02/24 09:47:09;;;;;;;10.00;0.80;;;9.00;99.90;;;;;;5074802;28;20024;-74
2022/02/24 09:49:36;;;;;;;5.15;0.10;;;9.00;99.90;;;;;;5072700;28;20025;-75
2022/02/24 09:52:05;;;;;;;5.28;0.50;;;9.00;99.90;;;;;;5073828;28;20032;-74
2022/02/24 09:54:33;;;;;;;3.25;0.25;;;9.10;99.90;;;;;;5074075;28;20032;-75
2022/02/24 09:56:59;;;;;;;6.25;0.17;;;9.20;99.90;;;;;;5073899;28;20025;-75
2022/02/24 09:59:25;;;;;;;6.22;0.38;;;9.20;99.90;;;;;;5072487;28;20063;-75
2022/02/24 10:01:52;;;;;;;4.32;0.30;;;9.40;99.90;;;;;;5074187;28;20473;-74
2022/02/24 10:04:18;;;;;;;10.15;1.33;;;9.60;99.90;;;;;;5072449;28;20043;-75
2022/02/24 10:06:44;;;;;;;9.60;0.90;;;9.60;99.90;;;;;;5073663;28;20394;-74
2022/02/24 10:09:18;;;;;;;9.13;1.75;;;9.70;99.90;;;;;;5073748;28;20029;-74
2022/02/24 10:11:46;;;;;;;4.07;0.08;;;9.70;99.90;;;;;;5072535;28;20504;-74
2022/02/24 10:14:20;;;;;;;8.10;0.95;;;9.80;99.90;;;;;;5072532;28;20013;-74
2022/02/24 10:17:04;;;;;;;5.88;0.80;;;9.80;99.90;;;;;;5072269;28;20032;-74
2022/02/24 10:19:44;;;;;;;3.88;0.10;;;9.80;99.90;;;;;;5072350;28;20386;-75
2022/02/24 10:22:25;;;;;;;7.20;0.90;;;9.70;99.90;;;;;;5073832;28;20029;-74
2022/02/24 10:25:04;;;;;;;7.90;0.30;;;9.60;99.90;;;;;;5073761;28;20358;-74
2022/02/24 10:27:35;;;;;;;4.65;0.10;;;9.60;99.90;;;;;;5073694;28;20085;-74
2022/02/24 10:30:05;;;;;;;6.00;0.55;;;9.70;99.90;;;;;;5073707;28;20017;-75
2022/02/24 10:32:33;;;;;;;10.15;0.63;;;10.00;99.90;;;;;;5073317;28;20117;-75
2022/02/24 10:35:20;;;;;;;3.17;0.10;;;10.00;99.90;;;;;;5073366;28;20028;-75
2022/02/24 10:37:57;;;;;;;3.90;0.35;;;10.10;99.90;;;;;;5071912;28;20111;-74
2022/02/24 10:40:25;;;;;;;2.88;0.20;;;10.20;99.90;;;;;;5073181;28;20533;-74
2022/02/24 10:42:51;;;;;;;5.07;0.15;;;10.30;99.90;;;;;;5071911;28;20017;-73
2022/02/24 10:45:17;;;;;;;13.68;0.55;;;10.40;99.90;;;;;;5073334;28;20492;-74
2022/02/24 10:48:00;;;;;;;4.32;0.55;;;10.60;99.90;;;;;;5073785;28;20016;-75
2022/02/24 10:50:47;;;;;;;5.10;0.05;;;10.80;99.90;;;;;;5073274;28;20027;-74
2022/02/24 10:53:14;;;;;;;5.47;0.30;;;10.70;99.90;;;;;;5073469;28;20077;-74
2022/02/24 10:56:01;;;;;;;3.28;0.30;;;10.70;99.90;;;;;;5072988;28;20017;-75
2022/02/24 10:58:37;;;;;;;4.13;0.00;;;10.70;99.90;;;;;;5071605;28;20032;-75
2022/02/24 11:01:07;;;;;;;8.63;0.65;;;10.60;99.90;;;;;;5073533;28;20104;-75
2022/02/24 11:03:33;;;;;;;3.90;0.45;;;10.60;99.90;;;;;;5072979;28;20091;-76
2022/02/24 11:06:02;;;;;;;5.18;0.10;;;10.50;99.90;;;;;;5071786;28;20023;-76
2022/02/24 11:08:29;;;;;;;5.63;0.55;;;10.40;99.90;;;;;;5073096;28;20024;-75
2022/02/24 11:10:57;;;;;;;6.97;0.40;;;10.50;99.90;;;;;;5073352;28;20039;-76
2022/02/24 11:13:23;;;;;;;6.90;0.80;;;10.50;99.90;;;;;;5072973;28;20478;-77
2022/02/24 11:15:50;;;;;;;4.25;0.30;;;10.40;99.90;;;;;;5073437;28;20049;-76
2022/02/24 11:18:17;;;;;;;3.13;0.10;;;10.30;99.90;;;;;;5072858;28;20028;-76
2022/02/24 11:20:43;;;;;;;4.93;0.10;;;10.20;99.90;;;;;;5072899;28;20024;-74
2022/02/24 11:23:09;;;;;;;3.03;0.10;;;10.30;99.90;;;;;;5073174;28;20432;-74
2022/02/24 11:25:42;;;;;;;5.25;0.50;;;10.30;99.90;;;;;;5072711;28;20024;-75
2022/02/24 11:28:09;;;;;;;1.73;0.00;;;10.40;99.90;;;;;;5071540;28;20068;-75
2022/02/24 11:30:39;;;;;;;3.80;0.38;;;10.50;99.90;;;;;;5072772;28;20066;-75
2022/02/24 11:33:05;;;;;;;6.15;1.00;;;10.50;99.90;;;;;;5071594;28;20021;-75
2022/02/24 11:35:31;;;;;;;7.72;0.25;;;10.50;99.90;;;;;;5072638;28;20031;-75
2022/02/24 11:38:13;;;;;;;8.65;1.20;;;10.50;99.90;;;;;;5072530;28;20124;-75
2022/02/24 11:40:40;;;;;;;3.08;0.25;;;10.60;99.90;;;;;;5071424;28;20055;-75
2022/02/24 11:43:24;;;;;;;2.40;0.68;;;10.40;99.90;;;;;;5071400;28;20016;-75
2022/02/24 11:45:55;;;;;;;3.47;0.30;;;10.40;99.90;;;;;;5072857;28;20364;-74
2022/02/24 11:48:23;;;;;;;2.88;0.10;;;10.40;99.90;;;;;;5072878;28;20029;-75
2022/02/24 11:50:59;;;;;;;4.87;0.10;;;10.30;99.90;;;;;;5072950;28;20484;-74
2022/02/24 11:53:28;;;;;;;7.55;0.17;;;10.40;99.90;;;;;;5075063;28;20304;-75
2022/02/24 11:55:58;;;;;;;4.68;0.30;;;10.40;99.90;;;;;;5074943;28;20055;-74
2022/02/24 11:58:46;;;;;;;5.38;0.45;;;10.40;99.90;;;;;;5074802;28;20020;-74
2022/02/24 12:01:12;;;;;;;1.85;0.00;;;10.40;99.90;;;;;;5075083;28;20028;-75
2022/02/24 12:03:44;;;;;;;3.92;0.20;;;10.40;99.90;;;;;;5076220;28;20047;-75
2022/02/24 12:06:18;;;;;;;6.22;0.13;;;10.50;99.90;;;;;;5075952;28;20028;-75
2022/02/24 12:09:03;;;;;;;2.88;0.10;;;10.40;99.90;;;;;;5074855;28;20075;-74
2022/02/24 12:11:31;;;;;;;2.88;0.32;;;10.30;99.90;;;;;;5075802;28;20085;-74
2022/02/24 12:13:57;;;;;;;4.05;0.13;;;10.30;99.90;;;;;;5075718;28;20440;-75
2022/02/24 12:16:25;;;;;;;3.67;0.25;;;10.30;99.90;;;;;;5075569;28;20029;-76
2022/02/24 12:18:55;;;;;;;4.70;0.53;;;10.10;99.90;;;;;;5075860;28;20412;-76
2022/02/24 12:21:33;;;;;;;4.03;0.08;;;10.10;99.90;;;;;;5075546;28;20349;-75
2022/02/24 12:24:14;;;;;;;4.75;0.00;;;10.00;99.90;;;;;;5075907;28;20078;-76
2022/02/24 12:26:50;;;;;;;1.88;0.15;;;9.90;99.90;;;;;;5076306;28;20426;-76
2022/02/24 12:29:28;;;;;;;4.53;0.32;;;9.90;99.90;;;;;;5074506;28;20024;-76
2022/02/24 12:31:58;;;;;;;4.20;0.08;;;9.80;99.90;;;;;;5075750;28;20024;-76
2022/02/24 12:34:25;;;;;;;2.35;0.00;;;9.70;99.90;;;;;;5075647;28;20032;-76
2022/02/24 12:36:51;;;;;;;5.03;0.00;;;9.70;99.90;;;;;;5075950;28;20497;-76
2022/02/24 12:39:17;;;;;;;4.35;0.00;;;9.60;99.90;;;;;;5075620;28;20075;-76
2022/02/24 12:41:43;;;;;;;2.47;0.20;;;9.60;99.90;;;;;;5075415;28;20494;-76
2022/02/24 12:44:24;;;;;;;7.18;0.10;;;9.60;99.90;;;;;;5075619;28;20466;-76
2022/02/24 12:46:51;;;;;;;2.30;0.15;;;9.50;99.90;;;;;;5075500;28;20020;-76
2022/02/24 12:49:18;;;;;;;3.05;0.03;;;9.50;99.90;;;;;;5075524;28;20052;-76
2022/02/24 12:51:44;;;;;;;2.15;0.10;;;9.40;99.90;;;;;;5075218;28;20017;-76
2022/02/24 12:54:16;;;;;;;2.40;0.17;;;9.30;99.90;;;;;;5074058;28;20060;-76
2022/02/24 12:56:42;;;;;;;5.40;0.10;;;9.20;99.90;;;;;;5074004;28;20035;-76
2022/02/24 12:59:13;;;;;;;4.47;0.00;;;9.10;99.90;;;;;;5075293;28;20471;-76